sensor_id;sensor_type;location;lat;lon;timestamp;pressure;altitude;pressure_sealevel;temperature;humidity
21879;BME280;27908;42.708;23.278;2023-05-12T00:01:12;63645.47;;;9.62;100.00
21879;BME280;27908;42.708;23.278;2023-05-12T00:03:38;63583.91;;;9.61;100.00
21879;BME280;27908;42.708;23.278;2023-05-12T00:06:04;63612.94;;;9.65;100.00
21879;BME280;27908;42.708;23.278;2023-05-12T00:08:30;63588.00;;;9.65;100.00
21879;BME280;27908;42.708;23.278;2023-05-12T00:10:56;63583.47;;;9.68;100.00
21879;BME280;27908;42.708;23.278;2023-05-12T00:13:22;63584.97;;;9.67;100.00
21879;BME280;27908;42.708;23.278;2023-05-12T00:15:49;63575.81;;;9.66;100.00
21879;BME280;27908;42.708;23.278;2023-05-12T00:18:14;63601.13;;;9.56;100.00
21879;BME280;27908;42.708;23.278;2023-05-12T00:20:40;63595.03;;;9.55;100.00
21879;BME280;27908;42.708;23.278;2023-05-12T00:23:05;63543.56;;;9.50;100.00
21879;BME280;27908;42.708;23.278;2023-05-12T00:25:31;63563.44;;;9.52;100.00
21879;BME280;27908;42.708;23.278;2023-05-12T00:27:56;63560.91;;;9.54;100.00
21879;BME280;27908;42.708;23.278;2023-05-12T00:30:22;63595.53;;;9.56;100.00
21879;BME280;27908;42.708;23.278;2023-05-12T00:32:47;63559.44;;;9.57;100.00
21879;BME280;27908;42.708;23.278;2023-05-12T00:35:13;63569.03;;;9.52;100.00
21879;BME280;27908;42.708;23.278;2023-05-12T00:37:40;63538.38;;;9.40;100.00
21879;BME280;27908;42.708;23.278;2023-05-12T00:40:06;63528.69;;;9.38;100.00
21879;BME280;27908;42.708;23.278;2023-05-12T00:42:33;63546.38;;;9.28;100.00
21879;BME280;27908;42.708;23.278;2023-05-12T00:44:59;63482.72;;;9.21;100.00
21879;BME280;27908;42.708;23.278;2023-05-12T00:47:24;63548.31;;;9.20;100.00
21879;BME280;27908;42.708;23.278;2023-05-12T00:49:50;63511.09;;;9.09;100.00
21879;BME280;27908;42.708;23.278;2023-05-12T00:52:15;63532.94;;;9.10;100.00
21879;BME280;27908;42.708;23.278;2023-05-12T00:54:41;63510.56;;;9.08;100.00
21879;BME280;27908;42.708;23.278;2023-05-12T00:57:07;63509.06;;;9.09;100.00
21879;BME280;27908;42.708;23.278;2023-05-12T00:59:34;63503.25;;;8.91;100.00
21879;BME280;27908;42.708;23.278;2023-05-12T01:01:59;63488.59;;;8.99;100.00
21879;BME280;27908;42.708;23.278;2023-05-12T01:04:25;63497.28;;;9.00;100.00
21879;BME280;27908;42.708;23.278;2023-05-12T01:06:54;63523.69;;;8.99;100.00
21879;BME280;27908;42.708;23.278;2023-05-12T01:09:20;63473.81;;;8.92;100.00
21879;BME280;27908;42.708;23.278;2023-05-12T01:11:46;63483.44;;;8.92;100.00
21879;BME280;27908;42.708;23.278;2023-05-12T01:14:11;63468.63;;;8.85;100.00
21879;BME280;27908;42.708;23.278;2023-05-12T01:16:51;63461.53;;;8.88;100.00
21879;BME280;27908;42.708;23.278;2023-05-12T01:19:49;63483.84;;;8.83;100.00
21879;BME280;27908;42.708;23.278;2023-05-12T01:22:17;63464.97;;;8.77;100.00
21879;BME280;27908;42.708;23.278;2023-05-12T01:24:49;63439.63;;;8.82;100.00
21879;BME280;27908;42.708;23.278;2023-05-12T01:27:15;63465.03;;;8.82;100.00
21879;BME280;27908;42.708;23.278;2023-05-12T01:29:44;63429.88;;;8.72;100.00
21879;BME280;27908;42.708;23.278;2023-05-12T01:32:11;63449.03;;;8.61;100.00
21879;BME280;27908;42.708;23.278;2023-05-12T01:34:37;63428.19;;;8.56;100.00
21879;BME280;27908;42.708;23.278;2023-05-12T01:37:02;63432.19;;;8.52;100.00
21879;BME280;27908;42.708;23.278;2023-05-12T01:39:28;63435.72;;;8.51;100.00
21879;BME280;27908;42.708;23.278;2023-05-12T01:41:53;63449.94;;;8.50;100.00
21879;BME280;27908;42.708;23.278;2023-05-12T01:44:19;63435.47;;;8.31;100.00
21879;BME280;27908;42.708;23.278;2023-05-12T01:46:45;63426.56;;;8.50;100.00
21879;BME280;27908;42.708;23.278;2023-05-12T01:49:11;63416.78;;;8.38;100.00
21879;BME280;27908;42.708;23.278;2023-05-12T01:51:36;63403.41;;;8.22;100.00
21879;BME280;27908;42.708;23.278;2023-05-12T01:54:01;63403.91;;;8.23;100.00
21879;BME280;27908;42.708;23.278;2023-05-12T01:56:27;63393.22;;;8.20;100.00
21879;BME280;27908;42.708;23.278;2023-05-12T01:58:53;63418.59;;;8.17;100.00
21879;BME280;27908;42.708;23.278;2023-05-12T02:01:18;63396.28;;;8.20;100.00
21879;BME280;27908;42.708;23.278;2023-05-12T02:03:44;63371.34;;;8.14;100.00
21879;BME280;27908;42.708;23.278;2023-05-12T02:06:09;63374.84;;;8.10;100.00
21879;BME280;27908;42.708;23.278;2023-05-12T02:08:34;63393.69;;;8.16;100.00
21879;BME280;27908;42.708;23.278;2023-05-12T02:11:07;63396.19;;;8.13;100.00
21879;BME280;27908;42.708;23.278;2023-05-12T02:13:33;63369.06;;;7.97;100.00
21879;BME280;27908;42.708;23.278;2023-05-12T02:15:59;63383.91;;;8.06;100.00
21879;BME280;27908;42.708;23.278;2023-05-12T02:18:25;63370.22;;;8.05;100.00
21879;BME280;27908;42.708;23.278;2023-05-12T02:20:50;63356.94;;;8.00;100.00
21879;BME280;27908;42.708;23.278;2023-05-12T02:23:15;63381.75;;;7.97;100.00
21879;BME280;27908;42.708;23.278;2023-05-12T02:25:41;63394.97;;;7.97;100.00
21879;BME280;27908;42.708;23.278;2023-05-12T02:28:06;63357.94;;;7.98;100.00
21879;BME280;27908;42.708;23.278;2023-05-12T02:30:35;63348.25;;;7.94;100.00
21879;BME280;27908;42.708;23.278;2023-05-12T02:33:01;63349.69;;;7.85;100.00
21879;BME280;27908;42.708;23.278;2023-05-12T02:35:26;63367.88;;;7.81;100.00
21879;BME280;27908;42.708;23.278;2023-05-12T02:37:52;63370.97;;;7.86;100.00
21879;BME280;27908;42.708;23.278;2023-05-12T02:40:17;63360.31;;;7.83;100.00
21879;BME280;27908;42.708;23.278;2023-05-12T02:42:42;63351.63;;;7.80;100.00
21879;BME280;27908;42.708;23.278;2023-05-12T02:45:10;63334.81;;;7.71;100.00
21879;BME280;27908;42.708;23.278;2023-05-12T02:47:35;63327.59;;;7.62;100.00
21879;BME280;27908;42.708;23.278;2023-05-12T02:50:01;63301.69;;;7.59;100.00
21879;BME280;27908;42.708;23.278;2023-05-12T02:52:26;63347.22;;;7.49;100.00
21879;BME280;27908;42.708;23.278;2023-05-12T02:54:52;63336.13;;;7.55;100.00
21879;BME280;27908;42.708;23.278;2023-05-12T02:57:17;63326.00;;;7.55;100.00
21879;BME280;27908;42.708;23.278;2023-05-12T02:59:43;63319.25;;;7.44;100.00
21879;BME280;27908;42.708;23.278;2023-05-12T03:02:08;63289.41;;;7.49;100.00
21879;BME280;27908;42.708;23.278;2023-05-12T03:04:33;63328.44;;;7.48;100.00
21879;BME280;27908;42.708;23.278;2023-05-12T03:06:59;63319.19;;;7.80;100.00
21879;BME280;27908;42.708;23.278;2023-05-12T03:09:24;63308.81;;;7.61;100.00
21879;BME280;27908;42.708;23.278;2023-05-12T03:11:50;63330.56;;;7.57;100.00
21879;BME280;27908;42.708;23.278;2023-05-12T03:14:15;63320.41;;;7.55;100.00
21879;BME280;27908;42.708;23.278;2023-05-12T03:16:41;63328.06;;;7.60;100.00
21879;BME280;27908;42.708;23.278;2023-05-12T03:19:06;63352.44;;;7.61;100.00
21879;BME280;27908;42.708;23.278;2023-05-12T03:21:31;63327.56;;;7.59;100.00
21879;BME280;27908;42.708;23.278;2023-05-12T03:23:57;63286.47;;;7.56;100.00
21879;BME280;27908;42.708;23.278;2023-05-12T03:26:22;63323.44;;;7.53;100.00
21879;BME280;27908;42.708;23.278;2023-05-12T03:28:48;63316.81;;;7.51;100.00
21879;BME280;27908;42.708;23.278;2023-05-12T03:31:13;63304.44;;;7.35;100.00
21879;BME280;27908;42.708;23.278;2023-05-12T03:33:38;63348.22;;;7.50;100.00
21879;BME280;27908;42.708;23.278;2023-05-12T03:36:04;63307.53;;;7.40;100.00
21879;BME280;27908;42.708;23.278;2023-05-12T03:38:30;63334.50;;;7.46;100.00
21879;BME280;27908;42.708;23.278;2023-05-12T03:41:05;63325.34;;;7.45;100.00
21879;BME280;27908;42.708;23.278;2023-05-12T03:43:31;63283.72;;;7.39;100.00
21879;BME280;27908;42.708;23.278;2023-05-12T03:45:56;63295.44;;;7.45;100.00
21879;BME280;27908;42.708;23.278;2023-05-12T03:48:21;63306.16;;;7.48;100.00
21879;BME280;27908;42.708;23.278;2023-05-12T03:50:47;63335.63;;;7.55;100.00
21879;BME280;27908;42.708;23.278;2023-05-12T03:53:13;63297.53;;;7.50;100.00
21879;BME280;27908;42.708;23.278;2023-05-12T03:55:38;63299.03;;;7.49;100.00
21879;BME280;27908;42.708;23.278;2023-05-12T03:58:04;63298.06;;;7.53;100.00
21879;BME280;27908;42.708;23.278;2023-05-12T04:00:29;63319.81;;;7.47;100.00
21879;BME280;27908;42.708;23.278;2023-05-12T04:02:54;63350.41;;;7.62;100.00
21879;BME280;27908;42.708;23.278;2023-05-12T04:05:20;63357.03;;;7.63;100.00
21879;BME280;27908;42.708;23.278;2023-05-12T04:07:46;63328.16;;;7.67;100.00
21879;BME280;27908;42.708;23.278;2023-05-12T04:10:11;63341.97;;;7.78;100.00
21879;BME280;27908;42.708;23.278;2023-05-12T04:12:36;63324.09;;;7.68;100.00
21879;BME280;27908;42.708;23.278;2023-05-12T04:15:02;63320.78;;;7.87;100.00
21879;BME280;27908;42.708;23.278;2023-05-12T04:17:27;63366.44;;;7.87;100.00
21879;BME280;27908;42.708;23.278;2023-05-12T04:19:53;63377.69;;;7.95;100.00
21879;BME280;27908;42.708;23.278;2023-05-12T04:22:18;63358.91;;;7.94;100.00
21879;BME280;27908;42.708;23.278;2023-05-12T04:24:44;63373.28;;;8.08;100.00
21879;BME280;27908;42.708;23.278;2023-05-12T04:27:09;63400.09;;;8.02;100.00
21879;BME280;27908;42.708;23.278;2023-05-12T04:29:34;63413.91;;;8.11;100.00
21879;BME280;27908;42.708;23.278;2023-05-12T04:32:00;63388.13;;;8.17;100.00
21879;BME280;27908;42.708;23.278;2023-05-12T04:34:25;63380.38;;;8.08;100.00
21879;BME280;27908;42.708;23.278;2023-05-12T04:36:51;63420.50;;;8.10;100.00
21879;BME280;27908;42.708;23.278;2023-05-12T04:39:17;63387.97;;;8.05;100.00
21879;BME280;27908;42.708;23.278;2023-05-12T04:41:42;63384.50;;;8.12;100.00
21879;BME280;27908;42.708;23.278;2023-05-12T04:44:08;63350.50;;;8.13;100.00
21879;BME280;27908;42.708;23.278;2023-05-12T04:46:33;63386.00;;;8.11;100.00
21879;BME280;27908;42.708;23.278;2023-05-12T04:48:59;63387.56;;;8.15;100.00
21879;BME280;27908;42.708;23.278;2023-05-12T04:51:24;63431.28;;;8.17;100.00
21879;BME280;27908;42.708;23.278;2023-05-12T04:53:49;63376.47;;;8.21;100.00
21879;BME280;27908;42.708;23.278;2023-05-12T04:56:15;63434.38;;;8.23;100.00
21879;BME280;27908;42.708;23.278;2023-05-12T04:58:40;63407.97;;;8.22;100.00
21879;BME280;27908;42.708;23.278;2023-05-12T05:01:06;63430.91;;;8.29;100.00
21879;BME280;27908;42.708;23.278;2023-05-12T05:03:32;63451.16;;;8.24;100.00
21879;BME280;27908;42.708;23.278;2023-05-12T05:05:57;63403.41;;;8.22;100.00
21879;BME280;27908;42.708;23.278;2023-05-12T05:08:23;63425.84;;;8.29;100.00
21879;BME280;27908;42.708;23.278;2023-05-12T05:10:48;63437.53;;;8.33;100.00
21879;BME280;27908;42.708;23.278;2023-05-12T05:13:14;63389.78;;;8.29;100.00
21879;BME280;27908;42.708;23.278;2023-05-12T05:15:48;63434.00;;;8.35;100.00
21879;BME280;27908;42.708;23.278;2023-05-12T05:18:14;63422.91;;;8.41;100.00
21879;BME280;27908;42.708;23.278;2023-05-12T05:20:39;63439.31;;;8.52;100.00
21879;BME280;27908;42.708;23.278;2023-05-12T05:23:04;63433.22;;;8.53;100.00
21879;BME280;27908;42.708;23.278;2023-05-12T05:25:31;63466.81;;;8.59;100.00
21879;BME280;27908;42.708;23.278;2023-05-12T05:27:57;63444.97;;;8.60;100.00
21879;BME280;27908;42.708;23.278;2023-05-12T05:30:22;63449.66;;;8.72;100.00
21879;BME280;27908;42.708;23.278;2023-05-12T05:32:48;63507.09;;;8.73;100.00
21879;BME280;27908;42.708;23.278;2023-05-12T05:35:13;63462.38;;;8.72;100.00
21879;BME280;27908;42.708;23.278;2023-05-12T05:37:39;63469.41;;;8.64;100.00
21879;BME280;27908;42.708;23.278;2023-05-12T05:40:05;63431.44;;;8.76;100.00
21879;BME280;27908;42.708;23.278;2023-05-12T05:42:30;63484.84;;;8.81;100.00
21879;BME280;27908;42.708;23.278;2023-05-12T05:44:56;63465.56;;;8.82;100.00
21879;BME280;27908;42.708;23.278;2023-05-12T05:47:21;63490.56;;;8.94;100.00
21879;BME280;27908;42.708;23.278;2023-05-12T05:49:47;63500.19;;;8.88;100.00
21879;BME280;27908;42.708;23.278;2023-05-12T05:52:12;63449.88;;;8.89;100.00
21879;BME280;27908;42.708;23.278;2023-05-12T05:54:37;63493.63;;;8.94;100.00
21879;BME280;27908;42.708;23.278;2023-05-12T05:57:03;63528.91;;;9.11;100.00
21879;BME280;27908;42.708;23.278;2023-05-12T05:59:28;63530.94;;;9.11;100.00
21879;BME280;27908;42.708;23.278;2023-05-12T06:01:54;63529.00;;;9.21;100.00
21879;BME280;27908;42.708;23.278;2023-05-12T06:04:19;63511.09;;;9.11;100.00
21879;BME280;27908;42.708;23.278;2023-05-12T06:06:45;63510.59;;;9.11;100.00
21879;BME280;27908;42.708;23.278;2023-05-12T06:09:10;63527.78;;;9.03;100.00
21879;BME280;27908;42.708;23.278;2023-05-12T06:11:37;63544.47;;;8.94;100.00
21879;BME280;27908;42.708;23.278;2023-05-12T06:14:03;63498.28;;;9.01;100.00
21879;BME280;27908;42.708;23.278;2023-05-12T06:16:28;63554.84;;;9.14;100.00
21879;BME280;27908;42.708;23.278;2023-05-12T06:18:54;63565.88;;;9.00;100.00
21879;BME280;27908;42.708;23.278;2023-05-12T06:21:20;63499.47;;;9.15;100.00
21879;BME280;27908;42.708;23.278;2023-05-12T06:23:45;63543.19;;;9.15;100.00
21879;BME280;27908;42.708;23.278;2023-05-12T06:26:10;63568.72;;;9.25;100.00
21879;BME280;27908;42.708;23.278;2023-05-12T06:28:36;63535.75;;;9.32;100.00
21879;BME280;27908;42.708;23.278;2023-05-12T06:31:01;63606.16;;;9.51;100.00
21879;BME280;27908;42.708;23.278;2023-05-12T06:33:27;63553.25;;;9.52;100.00
